createdAt,value
2022-10-13T00:02:42.509Z,101135.75
2022-10-13T00:07:45.410Z,101139.45
2022-10-13T00:12:48.217Z,101138.23
2022-10-13T00:17:51.013Z,101138.07
2022-10-13T00:22:53.815Z,101136.60
2022-10-13T00:27:56.617Z,101135.11
2022-10-13T00:32:59.438Z,101139.44
2022-10-13T00:38:02.221Z,101140.89
2022-10-13T00:43:34.926Z,101142.10
2022-10-13T00:48:37.828Z,101141.80
2022-10-13T00:53:44.453Z,101139.86
2022-10-13T00:58:49.167Z,101140.70
2022-10-13T01:03:52.278Z,101134.59
2022-10-13T01:08:55.081Z,101132.75
2022-10-13T01:14:19.383Z,101132.10
2022-10-13T01:19:43.894Z,101125.55
2022-10-13T01:25:01.441Z,101120.14
2022-10-13T01:30:19.091Z,101113.16
2022-10-13T01:35:35.307Z,101111.21
2022-10-13T01:41:04.223Z,101113.63
2022-10-13T01:46:15.857Z,101113.27
2022-10-13T01:51:22.012Z,101113.73
2022-10-13T01:56:24.786Z,101110.56
2022-10-13T02:01:46.641Z,101109.14
2022-10-13T02:07:04.927Z,101104.92
2022-10-13T02:12:12.438Z,101105.98
2022-10-13T02:17:16.327Z,101109.23
2022-10-13T02:22:21.030Z,101112.84
2022-10-13T02:27:24.856Z,101110.33
2022-10-13T02:32:27.949Z,101104.21
2022-10-13T02:37:30.752Z,101097.70
2022-10-13T02:42:33.549Z,101092.58
2022-10-13T02:47:36.355Z,101089.11
2022-10-13T02:52:39.262Z,101087.37
2022-10-13T02:57:42.077Z,101086.13
2022-10-13T03:02:44.969Z,101087.48
2022-10-13T03:07:47.769Z,101083.25
2022-10-13T03:12:51.635Z,101086.30
2022-10-13T03:17:54.459Z,101083.42
2022-10-13T03:22:57.295Z,101085.59
2022-10-13T03:28:00.404Z,101089.98
2022-10-13T03:33:05.084Z,101088.13
2022-10-13T03:38:09.796Z,101085.05
2022-10-13T03:43:12.601Z,101078.64
2022-10-13T03:48:15.404Z,101070.94
2022-10-13T03:53:18.201Z,101069.73
2022-10-13T03:58:22.436Z,101069.97
2022-10-13T04:03:25.240Z,101069.73
2022-10-13T04:08:29.467Z,101069.87
2022-10-13T04:13:32.957Z,101071.29
2022-10-13T04:18:36.112Z,101068.68
2022-10-13T04:23:39.108Z,101069.80
2022-10-13T04:28:42.419Z,101075.50
2022-10-13T04:33:45.914Z,101076.80
2022-10-13T04:38:48.688Z,101072.48
2022-10-13T04:43:52.678Z,101071.09
2022-10-13T04:48:56.935Z,101064.88
2022-10-13T04:54:01.495Z,101066.30
2022-10-13T04:59:08.036Z,101072.50
2022-10-13T05:04:11.645Z,101070.33
2022-10-13T05:09:18.660Z,101073.60
2022-10-13T05:14:23.006Z,101072.02
2022-10-13T05:19:25.903Z,101065.73
2022-10-13T05:24:39.238Z,101067.91
2022-10-13T05:29:43.182Z,101055.05
2022-10-13T05:34:49.503Z,101054.17
2022-10-13T05:39:52.386Z,101053.92
2022-10-13T05:44:55.274Z,101046.83
2022-10-13T05:49:58.197Z,101046.66
2022-10-13T05:55:04.173Z,101046.04
2022-10-13T06:00:18.827Z,101053.63
2022-10-13T06:05:24.502Z,101053.83
2022-10-13T06:10:27.405Z,101057.71
2022-10-13T06:15:30.209Z,101063.98
2022-10-13T06:20:33.113Z,101065.04
2022-10-13T06:25:36.429Z,101061.19
2022-10-13T06:30:39.638Z,101057.17
2022-10-13T06:35:42.543Z,101050.04
2022-10-13T06:40:45.350Z,101043.27
2022-10-13T06:45:48.657Z,101037.09
2022-10-13T06:50:51.458Z,101031.48
2022-10-13T06:56:01.842Z,101032.11
2022-10-13T07:01:06.297Z,101031.00
2022-10-13T07:06:09.285Z,101026.61
2022-10-13T07:11:16.172Z,101032.02
2022-10-13T07:16:19.500Z,101026.68
2022-10-13T07:21:23.020Z,101031.68
2022-10-13T07:26:25.820Z,101027.00
2022-10-13T07:31:28.926Z,101028.33
2022-10-13T07:36:33.517Z,101023.29
2022-10-13T07:41:37.957Z,101013.23
2022-10-13T07:46:40.816Z,101013.02
2022-10-13T07:51:44.572Z,101010.91
2022-10-13T07:56:50.820Z,101008.18
2022-10-13T08:01:53.858Z,101002.76
2022-10-13T08:06:56.816Z,101001.23
2022-10-13T08:12:00.841Z,101003.48
2022-10-13T08:17:04.792Z,100997.23
2022-10-13T08:22:09.915Z,100995.30
2022-10-13T08:27:19.856Z,100994.85
2022-10-13T08:32:23.444Z,100998.95
2022-10-13T08:37:26.751Z,100995.90
2022-10-13T08:42:30.064Z,100993.98
2022-10-13T08:47:43.822Z,100995.29
2022-10-13T08:53:16.537Z,101001.21
2022-10-13T08:58:23.728Z,100996.08
2022-10-13T09:03:29.990Z,100984.02
2022-10-13T09:08:41.312Z,100971.52
2022-10-13T09:13:44.423Z,100959.23
2022-10-13T09:18:47.327Z,100954.38
2022-10-13T09:23:54.332Z,100950.39
2022-10-13T09:28:57.273Z,100948.43
2022-10-13T09:34:03.619Z,100944.76
2022-10-13T09:39:12.564Z,100945.66
2022-10-13T09:44:29.321Z,100954.11
2022-10-13T09:49:39.916Z,100948.80
2022-10-13T09:54:45.535Z,100938.05
2022-10-13T09:59:54.122Z,100931.92
2022-10-13T10:05:01.517Z,100936.20
2022-10-13T10:10:13.000Z,100928.90
2022-10-13T10:15:24.914Z,100916.29
2022-10-13T10:20:39.812Z,100921.53
2022-10-13T10:25:45.372Z,100910.38
2022-10-13T10:31:12.453Z,100900.67
2022-10-13T10:36:34.822Z,100885.77
2022-10-13T10:42:10.232Z,100877.75
2022-10-13T10:47:30.887Z,100876.15
2022-10-13T10:53:16.290Z,100873.74
2022-10-13T10:58:38.341Z,100877.71
2022-10-13T11:04:09.809Z,100879.24
2022-10-13T11:09:12.820Z,100869.85
2022-10-13T11:14:28.639Z,100858.96
2022-10-13T11:19:39.928Z,100866.30
2022-10-13T11:24:42.726Z,100863.84
2022-10-13T11:29:49.311Z,100849.90
2022-10-13T11:35:05.962Z,100838.62
2022-10-13T11:40:46.632Z,100834.13
2022-10-13T11:46:20.056Z,100825.96
2022-10-13T11:51:35.144Z,100821.68
2022-10-13T11:56:50.539Z,100823.83
2022-10-13T12:01:59.690Z,100811.65
2022-10-13T12:07:06.585Z,100802.98
2022-10-13T12:12:18.868Z,100801.41
2022-10-13T12:17:28.592Z,100795.44
2022-10-13T12:22:31.684Z,100789.89
2022-10-13T12:27:46.059Z,100777.91
2022-10-13T12:32:50.907Z,100774.92
2022-10-13T12:37:55.523Z,100768.26
2022-10-13T12:42:58.674Z,100758.27
2022-10-13T12:48:01.570Z,100750.58
2022-10-13T12:53:13.281Z,100743.67
2022-10-13T12:58:23.803Z,100740.31
2022-10-13T13:03:29.635Z,100741.49
2022-10-13T13:08:33.055Z,100746.09
2022-10-13T13:13:35.953Z,100737.52
2022-10-13T13:18:47.070Z,100734.01
2022-10-13T13:23:53.694Z,100723.55
2022-10-13T13:28:57.173Z,100714.59
2022-10-13T13:33:59.988Z,100714.77
2022-10-13T13:39:02.776Z,100704.45
2022-10-13T13:44:05.668Z,100701.44
2022-10-13T13:49:10.824Z,100700.98
2022-10-13T13:54:13.623Z,100695.48
2022-10-13T13:59:16.530Z,100693.77
2022-10-13T14:04:19.433Z,100691.48
2022-10-13T14:09:22.233Z,100699.30
2022-10-13T14:14:25.546Z,100695.13
2022-10-13T14:19:28.449Z,100688.20
2022-10-13T14:24:31.250Z,100689.27
2022-10-13T14:29:35.181Z,100688.27
2022-10-13T14:34:38.085Z,100683.77
2022-10-13T14:39:40.987Z,100681.84
2022-10-13T14:44:43.800Z,100681.59
2022-10-13T14:49:46.596Z,100677.58
2022-10-13T14:54:49.398Z,100675.67
2022-10-13T14:59:52.709Z,100676.67
2022-10-13T15:04:55.510Z,100674.77
2022-10-13T15:10:05.567Z,100671.71
2022-10-13T15:15:10.112Z,100673.58
2022-10-13T15:20:13.029Z,100666.05
2022-10-13T15:25:16.137Z,100657.45
2022-10-13T15:30:18.938Z,100654.45
2022-10-13T15:35:21.740Z,100658.50
2022-10-13T15:40:25.054Z,100650.98
2022-10-13T15:45:27.856Z,100648.92
2022-10-13T15:50:30.762Z,100644.90
2022-10-13T15:55:33.770Z,100643.98
2022-10-13T16:00:37.223Z,100636.45
2022-10-13T16:05:41.928Z,100633.48
2022-10-13T16:10:44.731Z,100631.16
2022-10-13T16:15:57.455Z,100627.98
2022-10-13T16:21:00.678Z,100624.88
2022-10-13T16:26:05.403Z,100628.51
2022-10-13T16:31:14.370Z,100623.14
2022-10-13T16:36:19.878Z,100625.14
2022-10-13T16:41:23.973Z,100620.09
2022-10-13T16:46:26.883Z,100622.45
2022-10-13T16:51:30.224Z,100620.72
2022-10-13T16:56:33.711Z,100617.64
2022-10-13T17:01:37.429Z,100616.59
2022-10-13T17:06:41.151Z,100619.22
2022-10-13T17:11:44.058Z,100617.45
2022-10-13T17:16:46.960Z,100616.24
2022-10-13T17:21:49.774Z,100612.24
2022-10-13T17:26:52.562Z,100609.85
2022-10-13T17:31:55.569Z,100608.19
2022-10-13T17:36:59.497Z,100604.64
2022-10-13T17:42:02.404Z,100606.05
2022-10-13T17:47:05.201Z,100603.45
2022-10-13T17:52:08.012Z,100601.52
2022-10-13T17:57:10.805Z,100598.52
2022-10-13T18:02:14.465Z,100601.42
2022-10-13T18:07:18.052Z,100605.24
2022-10-13T18:12:21.156Z,100606.52
2022-10-13T18:17:24.163Z,100600.73
2022-10-13T18:22:27.792Z,100598.46
2022-10-13T18:27:31.613Z,100597.44
2022-10-13T18:32:34.618Z,100594.04
2022-10-13T18:37:37.726Z,100592.11
2022-10-13T18:42:45.870Z,100590.98
2022-10-13T18:47:52.228Z,100591.55
2022-10-13T18:52:55.040Z,100587.56
2022-10-13T18:57:57.841Z,100580.93
2022-10-13T19:03:00.641Z,100577.04
2022-10-13T19:08:03.445Z,100578.84
2022-10-13T19:13:06.247Z,100579.63
2022-10-13T19:18:09.770Z,100583.23
2022-10-13T19:23:16.943Z,100581.65
2022-10-13T19:28:20.631Z,100573.94
2022-10-13T19:33:23.392Z,100569.90
2022-10-13T19:38:26.298Z,100567.70
2022-10-13T19:43:29.405Z,100561.31
2022-10-13T19:48:32.310Z,100558.53
2022-10-13T19:53:36.647Z,100561.91
2022-10-13T19:58:39.554Z,100554.29
2022-10-13T20:03:42.358Z,100559.94
2022-10-13T20:08:45.671Z,100564.41
2022-10-13T20:13:48.726Z,100561.37
2022-10-13T20:18:58.034Z,100565.08
2022-10-13T20:24:01.239Z,100562.70
2022-10-13T20:29:04.328Z,100558.63
2022-10-13T20:34:07.856Z,100554.90
2022-10-13T20:39:10.608Z,100550.38
2022-10-13T20:44:13.577Z,100543.48
2022-10-13T20:49:16.681Z,100538.16
2022-10-13T20:54:19.484Z,100535.05
2022-10-13T20:59:22.797Z,100527.77
2022-10-13T21:04:25.599Z,100521.41
2022-10-13T21:09:28.400Z,100523.23
2022-10-13T21:14:31.307Z,100521.81
2022-10-13T21:19:34.311Z,100522.10
2022-10-13T21:24:37.522Z,100521.46
2022-10-13T21:29:40.324Z,100519.06
2022-10-13T21:34:43.539Z,100518.38
2022-10-13T21:39:48.538Z,100513.52
2022-10-13T21:44:51.498Z,100517.81
2022-10-13T21:49:54.606Z,100513.96
2022-10-13T21:54:57.411Z,100510.06
2022-10-13T22:00:00.209Z,100504.98
2022-10-13T22:05:03.018Z,100502.48
2022-10-13T22:10:06.219Z,100499.02
2022-10-13T22:15:09.760Z,100495.40
2022-10-13T22:20:13.256Z,100496.39
2022-10-13T22:25:16.059Z,100492.30
2022-10-13T22:30:18.861Z,100486.30
2022-10-13T22:35:21.661Z,100485.61
2022-10-13T22:40:24.464Z,100486.09
2022-10-13T22:45:27.572Z,100484.30
2022-10-13T22:50:30.379Z,100484.24
2022-10-13T22:55:33.177Z,100486.38
2022-10-13T23:00:37.560Z,100482.39
2022-10-13T23:05:47.382Z,100483.38
2022-10-13T23:10:50.184Z,100483.70
2022-10-13T23:15:53.418Z,100485.52
2022-10-13T23:20:57.263Z,100482.98
2022-10-13T23:26:18.147Z,100481.73
2022-10-13T23:31:21.154Z,100475.65
2022-10-13T23:36:26.823Z,100470.26
2022-10-13T23:41:30.341Z,100472.38
2022-10-13T23:46:33.146Z,100471.23
2022-10-13T23:51:35.947Z,100467.81
2022-10-13T23:56:39.421Z,100465.98
